Time;durP1;ratioP1;P1;durP2;ratioP2;P2;SDS_P1;SDS_P2;PMS_P1;PMS_P2;Temp;Humidity;BMP_temperature;BMP_pressure;BME280_temperature;BME280_humidity;BME280_pressure;Samples;Min_cycle;Max_cycle;Signal;HPM_P1;HPM_P2
2021/12/13 00:00:18;;;;;;;;;16.50;13.50;;;;;12.45;74.58;102417.84;5023754;28;46459;-59
2021/12/13 00:02:48;;;;;;;;;14.00;12.00;;;;;12.44;74.47;102410.84;5022600;28;45469;-58
2021/12/13 00:05:16;;;;;;;;;16.25;13.75;;;;;12.44;74.71;102413.47;5025344;28;45472;-59
2021/12/13 00:07:45;;;;;;;;;16.75;13.50;;;;;12.42;74.35;102410.91;5030547;28;45236;-60
2021/12/13 00:10:18;;;;;;;;;19.75;12.00;;;;;12.40;74.34;102407.47;5028617;28;46054;-58
2021/12/13 00:12:49;;;;;;;;;19.75;14.25;;;;;12.39;74.57;102415.44;5030483;28;46249;-59
2021/12/13 00:15:26;;;;;;;;;15.00;13.00;;;;;12.36;74.52;102405.84;5028921;28;45418;-59
2021/12/13 00:17:54;;;;;;;;;17.00;16.00;;;;;12.37;74.70;102404.94;5030731;28;45439;-59
2021/12/13 00:20:37;;;;;;;;;23.50;19.25;;;;;12.39;74.84;102391.66;5028420;28;46322;-59
2021/12/13 00:23:14;;;;;;;;;19.25;17.25;;;;;12.36;74.79;102397.94;5040024;28;45481;-59
2021/12/13 00:25:44;;;;;;;;;22.25;16.75;;;;;12.38;74.76;102387.28;5031643;28;45300;-59
2021/12/13 00:28:13;;;;;;;;;21.00;17.50;;;;;12.37;74.39;102382.94;5029589;28;45295;-59
2021/12/13 00:31:01;;;;;;;;;16.00;15.25;;;;;12.37;74.72;102389.06;5028221;28;46458;-59
2021/12/13 00:33:59;;;;;;;;;16.00;15.00;;;;;12.38;74.61;102385.50;5028152;28;45299;-59
2021/12/13 00:36:33;;;;;;;;;10.50;10.50;;;;;12.36;74.51;102384.72;5025617;28;45239;-59
2021/12/13 00:39:09;;;;;;;;;14.25;12.25;;;;;12.34;74.59;102383.91;5027369;28;45395;-59
2021/12/13 00:41:35;;;;;;;;;16.00;15.25;;;;;12.37;74.57;102388.22;5026870;28;46155;-59
2021/12/13 00:44:10;;;;;;;;;17.00;11.00;;;;;12.34;74.42;102385.69;5033587;28;45379;-59
2021/12/13 00:46:38;;;;;;;;;13.75;12.00;;;;;12.35;74.48;102376.84;5030229;28;45307;-59
2021/12/13 00:49:09;;;;;;;;;14.25;11.25;;;;;12.36;74.49;102387.34;5029212;28;45673;-59
2021/12/13 00:51:41;;;;;;;;;13.25;12.00;;;;;12.36;74.48;102384.72;5027823;28;45351;-57
2021/12/13 00:54:20;;;;;;;;;16.25;12.75;;;;;12.37;74.43;102382.94;5035507;28;45325;-59
2021/12/13 00:56:58;;;;;;;;;13.00;11.50;;;;;12.38;74.43;102388.16;5032728;28;46268;-59
2021/12/13 00:59:28;;;;;;;;;10.25;10.00;;;;;12.36;74.64;102389.13;5030665;28;45233;-59
2021/12/13 01:02:03;;;;;;;;;15.75;14.75;;;;;12.36;74.23;102397.94;5031972;28;45450;-59
2021/12/13 01:04:48;;;;;;;;;15.75;12.50;;;;;12.36;74.24;102397.94;5032062;28;45420;-59
2021/12/13 01:07:34;;;;;;;;;12.00;11.25;;;;;12.37;74.48;102399.63;5033456;28;45391;-58
2021/12/13 01:10:27;;;;;;;;;10.25;10.25;;;;;12.37;74.03;102394.34;5030004;28;45486;-58
2021/12/13 01:12:57;;;;;;;;;12.50;11.00;;;;;12.39;74.23;102384.56;5030984;28;45422;-59
2021/12/13 01:15:36;;;;;;;;;13.50;11.00;;;;;12.39;73.95;102392.50;5038500;28;45528;-59
2021/12/13 01:18:24;;;;;;;;;11.25;8.50;;;;;12.38;74.25;102382.00;5032725;28;45392;-58
2021/12/13 01:21:14;;;;;;;;;16.25;11.00;;;;;12.38;74.22;102377.56;5033880;28;45412;-58
2021/12/13 01:23:49;;;;;;;;;14.50;10.75;;;;;12.38;74.29;102382.84;5029466;28;46458;-58
2021/12/13 01:26:37;;;;;;;;;12.50;11.50;;;;;12.39;74.22;102386.34;5031407;28;45248;-58
2021/12/13 01:29:17;;;;;;;;;12.75;11.00;;;;;12.37;74.34;102381.13;5033178;28;45485;-58
2021/12/13 01:31:56;;;;;;;;;13.25;10.75;;;;;12.38;74.06;102371.44;5030925;28;45245;-58
2021/12/13 01:34:26;;;;;;;;;13.00;11.50;;;;;12.36;74.24;102382.06;5031158;28;46170;-58
2021/12/13 01:37:10;;;;;;;;;10.75;10.75;;;;;12.37;74.31;102386.44;5034239;28;45331;-58
2021/12/13 01:39:38;;;;;;;;;11.50;9.00;;;;;12.36;74.30;102387.34;5032108;28;45419;-58
2021/12/13 01:42:17;;;;;;;;;18.75;11.00;;;;;12.35;74.34;102385.63;5029276;28;45503;-59
2021/12/13 01:44:48;;;;;;;;;13.00;9.75;;;;;12.35;74.47;102385.63;5031849;28;45383;-58
2021/12/13 01:47:24;;;;;;;;;11.75;10.50;;;;;12.35;74.31;102392.72;5030364;28;45430;-58
2021/12/13 01:49:54;;;;;;;;;11.25;7.00;;;;;12.33;74.40;102390.13;5030950;28;45464;-59
2021/12/13 01:52:31;;;;;;;;;13.25;11.50;;;;;12.32;74.55;102390.16;5029976;28;45410;-58
2021/12/13 01:55:00;;;;;;;;;13.00;9.75;;;;;12.31;74.39;102397.25;5032710;28;45208;-59
2021/12/13 01:57:40;;;;;;;;;9.25;8.75;;;;;12.30;74.63;102396.38;5027261;28;45460;-59
2021/12/13 02:01:09;;;;;;;;;9.25;8.25;;;;;12.32;74.75;102390.16;5029898;28;45450;-58
2021/12/13 02:03:54;;;;;;;;;9.25;8.50;;;;;12.33;74.74;102387.50;5022294;28;45297;-59
2021/12/13 02:06:31;;;;;;;;;15.00;11.00;;;;;12.35;74.75;102396.22;5024181;28;45442;-59
2021/12/13 02:09:03;;;;;;;;;10.50;8.50;;;;;12.37;74.57;102401.44;5028223;28;45536;-59
2021/12/13 02:11:31;;;;;;;;;13.50;10.75;;;;;12.37;74.56;102396.13;5029895;28;45643;-60
2021/12/13 02:14:11;;;;;;;;;10.00;9.25;;;;;12.38;74.52;102392.56;5029699;28;45427;-60
2021/12/13 02:17:08;;;;;;;;;12.75;11.25;;;;;12.39;74.34;102397.78;5023335;28;45585;-60
2021/12/13 02:20:00;;;;;;;;;16.75;14.50;;;;;12.38;74.67;102395.22;5028411;28;45749;-60
2021/12/13 02:22:35;;;;;;;;;12.50;10.25;;;;;12.39;74.70;102396.94;5027951;28;45596;-60
2021/12/13 02:25:17;;;;;;;;;15.00;10.25;;;;;12.40;74.67;102401.28;5030582;28;45570;-60
2021/12/13 02:27:48;;;;;;;;;11.75;10.00;;;;;12.40;74.49;102406.56;5028099;28;46397;-60
2021/12/13 02:30:46;;;;;;;;;10.00;10.00;;;;;12.38;74.37;102411.06;5042235;28;45719;-58
2021/12/13 02:33:19;;;;;;;;;10.50;10.00;;;;;12.37;74.45;102404.94;5026672;28;45689;-58
2021/12/13 02:35:55;;;;;;;;;13.25;11.25;;;;;12.37;74.50;102410.22;5027444;28;45436;-58
2021/12/13 02:38:21;;;;;;;;;13.00;11.25;;;;;12.36;74.24;102397.94;5024749;28;45976;-58
2021/12/13 02:40:49;;;;;;;;;8.75;7.25;;;;;12.34;74.60;102398.91;5027531;28;45689;-58
2021/12/13 02:43:17;;;;;;;;;12.00;11.50;;;;;12.33;74.46;102391.91;5025103;28;45423;-59
2021/12/13 02:45:47;;;;;;;;;14.25;11.75;;;;;12.33;74.65;102399.84;5030505;28;45491;-59
2021/12/13 02:48:18;;;;;;;;;11.75;10.25;;;;;12.33;74.70;102397.19;5027498;28;46090;-59
2021/12/13 02:50:54;;;;;;;;;17.50;14.25;;;;;12.32;74.53;102401.59;5029349;28;45327;-59
2021/12/13 02:53:42;;;;;;;;;12.25;10.75;;;;;12.33;74.42;102400.69;5026373;28;45435;-59
2021/12/13 02:56:09;;;;;;;;;10.75;10.25;;;;;12.33;74.48;102399.84;5027269;28;46530;-59
2021/12/13 02:58:35;;;;;;;;;22.50;13.50;;;;;12.31;74.44;102389.31;5027800;28;45534;-59
2021/12/13 03:01:23;;;;;;;;;14.75;11.00;;;;;12.32;74.52;102384.88;5027647;28;45458;-59
2021/12/13 03:03:53;;;;;;;;;10.75;10.75;;;;;12.33;74.60;102386.63;5027044;28;45405;-59
2021/12/13 03:06:24;;;;;;;;;13.00;10.75;;;;;12.32;74.46;102391.03;5028187;28;45483;-59
2021/12/13 03:09:00;;;;;;;;;14.75;14.00;;;;;12.32;74.45;102392.81;5026796;28;45716;-59
2021/12/13 03:11:32;;;;;;;;;15.25;12.00;;;;;12.33;74.62;102389.28;5028560;28;45429;-59
2021/12/13 03:14:06;;;;;;;;;15.25;12.75;;;;;12.32;74.75;102388.38;5025236;28;45305;-59
2021/12/13 03:16:43;;;;;;;;;12.00;11.25;;;;;12.35;74.58;102388.28;5029510;28;45730;-59
2021/12/13 03:19:17;;;;;;;;;17.25;12.25;;;;;12.34;74.43;102393.63;5027858;28;46235;-59
2021/12/13 03:22:07;;;;;;;;;12.75;11.50;;;;;12.32;74.38;102385.75;5027402;28;45684;-59
2021/12/13 03:24:36;;;;;;;;;12.75;11.75;;;;;12.32;74.38;102384.88;5030404;28;45885;-59
2021/12/13 03:27:04;;;;;;;;;16.75;15.50;;;;;12.30;74.64;102385.81;5028122;28;45558;-59
2021/12/13 03:29:53;;;;;;;;;24.00;16.00;;;;;12.30;74.72;102382.31;5028188;28;45597;-59
2021/12/13 03:32:20;;;;;;;;;18.00;15.50;;;;;12.29;74.63;102376.16;5028671;28;45621;-59
2021/12/13 03:35:17;;;;;;;;;15.50;14.25;;;;;12.29;74.80;102372.66;5029607;28;45485;-59
2021/12/13 03:37:44;;;;;;;;;20.00;17.25;;;;;12.27;74.65;102378.00;5019323;28;45589;-59
2021/12/13 03:40:20;;;;;;;;;21.00;16.50;;;;;12.26;74.91;102378.94;5028095;28;45467;-59
2021/12/13 03:42:53;;;;;;;;;23.25;18.25;;;;;12.25;74.71;102379.00;5026560;28;45797;-61
2021/12/13 03:45:28;;;;;;;;;17.75;17.25;;;;;12.24;74.78;102378.16;5022612;28;45420;-59
2021/12/13 03:47:57;;;;;;;;;21.75;16.50;;;;;12.22;74.73;102374.69;5026434;28;45583;-59
2021/12/13 03:50:30;;;;;;;;;18.50;15.50;;;;;12.22;74.74;102368.53;5029291;28;45561;-58
2021/12/13 03:52:58;;;;;;;;;17.50;13.50;;;;;12.21;74.82;102364.19;5025498;28;45406;-53
2021/12/13 03:55:30;;;;;;;;;18.25;12.75;;;;;12.20;74.63;102355.41;5027017;28;45854;-55
2021/12/13 03:58:00;;;;;;;;;26.75;18.25;;;;;12.20;74.49;102363.34;5026795;28;45573;-53
2021/12/13 04:00:31;;;;;;;;;20.25;14.50;;;;;12.19;74.74;102358.13;5028156;28;46121;-55
2021/12/13 04:03:00;;;;;;;;;16.25;13.25;;;;;12.16;74.52;102359.06;5023864;28;45510;-54
2021/12/13 04:05:29;;;;;;;;;21.00;16.00;;;;;12.18;74.71;102359.03;5025855;28;45482;-55
2021/12/13 04:08:01;;;;;;;;;25.75;15.25;;;;;12.18;74.60;102359.03;5021888;28;45672;-55
2021/12/13 04:10:33;;;;;;;;;20.75;17.25;;;;;12.17;74.65;102366.09;5028917;28;46286;-55
2021/12/13 04:13:09;;;;;;;;;20.25;15.00;;;;;12.17;74.72;102360.81;5027812;28;45875;-54
2021/12/13 04:19:06;;;;;;;;;19.75;17.50;;;;;12.15;74.68;102364.44;5026906;28;45376;-53
2021/12/13 04:21:56;;;;;;;;;20.75;19.25;;;;;12.16;74.61;102367.00;5027815;28;45371;-54
2021/12/13 04:24:39;;;;;;;;;14.00;13.25;;;;;12.14;74.57;102365.34;5026445;28;45513;-54
2021/12/13 04:27:14;;;;;;;;;24.50;15.75;;;;;12.14;74.55;102368.00;5025593;28;45595;-52
2021/12/13 04:29:41;;;;;;;;;16.00;12.50;;;;;12.15;74.41;102365.28;5026171;28;45433;-54
2021/12/13 04:32:31;;;;;;;;;16.00;11.25;;;;;12.15;74.51;102369.72;5029546;28;45551;-54
2021/12/13 04:35:00;;;;;;;;;23.25;15.75;;;;;12.14;74.39;102366.22;5026284;28;45750;-53
2021/12/13 04:37:30;;;;;;;;;17.50;16.25;;;;;12.12;74.27;102362.78;5032248;28;45532;-55
2021/12/13 04:40:00;;;;;;;;;17.00;12.25;;;;;12.10;74.14;102359.34;5027900;28;45731;-49
2021/12/13 04:42:28;;;;;;;;;15.75;14.25;;;;;12.08;74.31;102366.44;5029287;28;45431;-53
2021/12/13 04:45:05;;;;;;;;;14.75;13.25;;;;;12.10;74.43;102366.41;5029751;28;45345;-54
2021/12/13 04:47:43;;;;;;;;;16.75;14.25;;;;;12.10;74.22;102371.69;5028802;28;45474;-55
2021/12/13 04:50:19;;;;;;;;;19.50;14.00;;;;;12.10;74.04;102375.19;5029617;28;45542;-52
2021/12/13 04:52:46;;;;;;;;;14.00;10.25;;;;;12.10;74.18;102372.56;5027819;28;45447;-53
2021/12/13 04:55:18;;;;;;;;;17.25;13.75;;;;;12.10;74.01;102374.34;5029542;28;45388;-52
2021/12/13 04:57:46;;;;;;;;;14.00;8.75;;;;;12.10;73.90;102377.84;5031796;28;45653;-53
2021/12/13 05:00:16;;;;;;;;;13.00;12.25;;;;;12.11;74.12;102376.06;5032814;28;45470;-51
2021/12/13 05:02:45;;;;;;;;;14.75;11.50;;;;;12.12;73.79;102380.41;5030002;28;46250;-55
2021/12/13 05:05:12;;;;;;;;;11.75;10.00;;;;;12.10;73.92;102383.13;5028301;28;45434;-55
2021/12/13 05:07:39;;;;;;;;;8.50;8.00;;;;;12.09;73.87;102389.31;5029939;28;45365;-55
2021/12/13 05:10:05;;;;;;;;;10.75;10.75;;;;;12.07;73.88;102387.66;5031361;28;45392;-55
2021/12/13 05:12:31;;;;;;;;;14.25;11.00;;;;;12.07;73.95;102387.66;5029876;28;45439;-56
2021/12/13 05:15:01;;;;;;;;;11.75;9.75;;;;;12.09;73.73;102399.03;5027977;28;45474;-55
2021/12/13 05:17:41;;;;;;;;;14.00;11.50;;;;;12.09;73.75;102391.97;5033069;28;45520;-55
2021/12/13 05:20:14;;;;;;;;;12.50;8.50;;;;;12.11;73.71;102394.53;5032780;28;45459;-55
2021/12/13 05:22:56;;;;;;;;;12.25;10.00;;;;;12.12;73.63;102391.84;5026612;28;45465;-54
2021/12/13 05:25:33;;;;;;;;;9.50;9.50;;;;;12.14;73.53;102389.13;5033881;28;45505;-54
2021/12/13 05:28:17;;;;;;;;;8.50;8.50;;;;;12.14;73.55;102389.97;5041656;28;45253;-54
2021/12/13 05:30:57;;;;;;;;;9.50;9.00;;;;;12.15;73.63;102390.84;5041934;28;45392;-55
2021/12/13 05:33:27;;;;;;;;;12.25;11.50;;;;;12.16;73.57;102392.56;5041314;28;45512;-54
2021/12/13 05:35:55;;;;;;;;;15.25;12.75;;;;;12.15;73.55;102393.47;5041361;28;45310;-54
2021/12/13 05:38:31;;;;;;;;;10.75;10.25;;;;;12.14;73.73;102395.28;5041707;28;45383;-55
2021/12/13 05:41:02;;;;;;;;;16.00;13.75;;;;;12.14;73.85;102399.69;5041312;28;45463;-54
2021/12/13 05:43:41;;;;;;;;;14.25;11.75;;;;;12.11;73.73;102394.53;5041284;28;45317;-51
2021/12/13 05:46:14;;;;;;;;;15.00;12.00;;;;;12.07;73.83;102388.50;5041460;28;45491;-54
2021/12/13 05:48:45;;;;;;;;;23.75;17.50;;;;;12.07;73.97;102396.44;5041411;28;45327;-55
2021/12/13 05:51:32;;;;;;;;;20.75;16.75;;;;;12.07;74.09;102387.66;5041010;28;46376;-53
2021/12/13 05:54:29;;;;;;;;;14.00;12.00;;;;;12.06;73.87;102391.22;5041191;28;45588;-54
2021/12/13 05:56:55;;;;;;;;;10.50;10.25;;;;;12.05;73.86;102387.72;5036411;28;45454;-56
2021/12/13 05:59:33;;;;;;;;;13.75;11.00;;;;;12.01;73.87;102381.69;5041326;28;45319;-54
2021/12/13 06:02:17;;;;;;;;;11.75;9.25;;;;;11.99;73.46;102383.50;5041292;28;45398;-56
2021/12/13 06:05:07;;;;;;;;;13.00;13.00;;;;;11.98;73.80;102391.50;5041003;28;46131;-55
2021/12/13 06:07:39;;;;;;;;;12.25;10.50;;;;;11.97;73.66;102389.78;5041051;28;45313;-53
2021/12/13 06:10:08;;;;;;;;;16.00;14.00;;;;;11.95;73.58;102389.84;5040949;28;45443;-54
2021/12/13 06:12:39;;;;;;;;;15.50;11.75;;;;;11.94;73.65;102390.78;5040769;28;45233;-55
2021/12/13 06:15:17;;;;;;;;;15.75;14.00;;;;;11.92;73.77;102389.09;5040043;28;45496;-55
2021/12/13 06:17:46;;;;;;;;;34.75;31.25;;;;;11.91;73.79;102390.03;5028236;28;45373;-54
2021/12/13 06:20:19;;;;;;;;;12.50;12.25;;;;;11.91;73.67;102385.59;5029832;28;45741;-54
2021/12/13 06:22:46;;;;;;;;;16.00;14.25;;;;;11.91;73.76;102392.66;5026738;28;45513;-57
2021/12/13 06:25:15;;;;;;;;;21.25;14.75;;;;;11.90;73.51;102389.16;5029416;28;45539;-55
2021/12/13 06:27:50;;;;;;;;;14.25;12.75;;;;;11.89;73.33;102394.50;5030816;28;45454;-54
2021/12/13 06:30:28;;;;;;;;;17.75;17.00;;;;;11.87;73.31;102394.56;5027261;28;45720;-55
2021/12/13 06:32:57;;;;;;;;;19.50;15.50;;;;;11.86;73.26;102389.34;5008340;28;45457;-55
2021/12/13 06:35:29;;;;;;;;;16.25;14.25;;;;;11.84;73.46;102394.66;5021116;28;46167;-55
2021/12/13 06:37:56;;;;;;;;;15.25;12.00;;;;;11.82;73.24;102398.28;5021647;28;45376;-54
2021/12/13 06:40:27;;;;;;;;;17.25;13.50;;;;;11.80;73.41;102402.75;5021061;28;45339;-55
2021/12/13 06:43:22;;;;;;;;;15.00;10.25;;;;;11.79;73.53;102399.25;5021616;28;45421;-52
2021/12/13 06:45:48;;;;;;;;;14.50;13.00;;;;;11.78;73.68;102404.59;5023791;28;45797;-51
2021/12/13 06:48:13;;;;;;;;;24.75;16.00;;;;;11.78;73.31;102410.72;5027934;28;45456;-59
2021/12/13 06:50:39;;;;;;;;;10.75;9.50;;;;;11.74;73.58;102399.41;5027902;28;45405;-59
2021/12/13 06:53:09;;;;;;;;;15.75;11.50;;;;;11.74;72.97;102401.19;5025442;28;45610;-55
2021/12/13 06:55:35;;;;;;;;;12.00;11.00;;;;;11.72;73.35;102408.31;5020930;28;45355;-59
2021/12/13 06:58:10;;;;;;;;;13.75;11.25;;;;;11.71;73.16;102406.59;5021594;28;45423;-59
2021/12/13 07:00:37;;;;;;;;;10.75;10.50;;;;;11.69;73.33;102397.84;5021323;28;45502;-58
2021/12/13 07:03:10;;;;;;;;;17.25;10.50;;;;;11.66;73.51;102390.06;5021003;28;45602;-57
2021/12/13 07:05:40;;;;;;;;;15.50;10.50;;;;;11.65;73.20;102393.63;5020912;28;46075;-57
2021/12/13 07:08:12;;;;;;;;;12.50;11.50;;;;;11.64;73.22;102390.13;5020980;28;45352;-55
2021/12/13 07:10:44;;;;;;;;;11.75;9.00;;;;;11.65;73.36;102399.75;5020709;28;45415;-57
2021/12/13 07:13:42;;;;;;;;;10.50;9.75;;;;;11.65;73.35;102396.25;5020432;28;45505;-57
2021/12/13 07:16:12;;;;;;;;;13.25;13.00;;;;;11.64;73.12;102394.53;5028041;28;46791;-57
2021/12/13 07:18:44;;;;;;;;;12.75;10.50;;;;;11.63;73.31;102398.97;5020647;28;45388;-58
2021/12/13 07:21:23;;;;;;;;;17.00;11.75;;;;;11.64;73.38;102398.03;5019724;28;45479;-57
2021/12/13 07:24:03;;;;;;;;;17.25;13.50;;;;;11.67;73.32;102403.19;5020984;28;45405;-57
2021/12/13 07:26:40;;;;;;;;;10.75;10.00;;;;;11.67;73.19;102397.91;5020921;28;45421;-57
2021/12/13 07:29:17;;;;;;;;;10.75;9.25;;;;;11.66;73.06;102403.25;5020839;28;45395;-56
2021/12/13 07:31:44;;;;;;;;;7.50;7.25;;;;;11.65;73.39;102405.03;5019126;28;45441;-53
2021/12/13 07:34:20;;;;;;;;;10.50;10.50;;;;;11.66;73.26;102412.03;5019033;28;45632;-56
2021/12/13 07:36:54;;;;;;;;;16.00;11.75;;;;;11.66;73.02;102411.19;5010481;28;46084;-56
2021/12/13 07:39:25;;;;;;;;;9.25;8.25;;;;;11.67;72.93;102420.81;5007328;28;45466;-56
2021/12/13 07:41:54;;;;;;;;;16.50;13.75;;;;;11.64;73.15;102419.16;5008398;28;45421;-56
2021/12/13 07:44:35;;;;;;;;;9.00;8.00;;;;;11.65;73.18;102417.38;5005780;28;45358;-54
2021/12/13 07:47:17;;;;;;;;;7.50;7.00;;;;;11.66;72.89;102413.81;5006963;28;45275;-52
2021/12/13 07:49:46;;;;;;;;;7.25;7.25;;;;;11.66;73.10;102419.94;5005354;28;45891;-51
2021/12/13 07:52:27;;;;;;;;;7.75;5.00;;;;;11.70;72.97;102412.81;5007935;28;45714;-50
2021/12/13 07:54:55;;;;;;;;;7.00;5.25;;;;;11.71;73.08;102417.16;5016383;28;45557;-53
2021/12/13 07:57:25;;;;;;;;;10.75;9.00;;;;;11.73;73.06;102415.31;5017124;28;45363;-59
2021/12/13 07:59:52;;;;;;;;;5.75;4.00;;;;;11.74;72.90;102419.66;5009366;28;45284;-54
2021/12/13 08:02:31;;;;;;;;;3.50;3.50;;;;;11.78;72.85;102415.16;5006986;28;45312;-57
2021/12/13 08:05:11;;;;;;;;;11.75;4.75;;;;;11.79;73.04;102412.44;5009671;28;45401;-57
2021/12/13 08:07:43;;;;;;;;;5.50;5.00;;;;;11.82;72.91;102407.06;5019322;28;46269;-56
2021/12/13 08:10:20;;;;;;;;;7.75;5.00;;;;;11.86;72.54;102411.34;5010587;28;45382;-57
2021/12/13 08:12:52;;;;;;;;;7.75;4.00;;;;;11.89;72.38;102416.50;5011972;28;45319;-55
2021/12/13 08:15:26;;;;;;;;;15.00;11.50;;;;;11.90;72.29;102415.56;5005889;28;45426;-56
2021/12/13 08:17:59;;;;;;;;;2.00;2.00;;;;;11.92;72.23;102416.34;5009838;28;46283;-56
2021/12/13 08:20:32;;;;;;;;;3.00;3.00;;;;;11.94;71.79;102416.31;5004378;28;45369;-57
2021/12/13 08:23:00;;;;;;;;;2.00;2.00;;;;;11.95;71.86;102429.47;5011748;28;45590;-56
2021/12/13 08:25:38;;;;;;;;;5.75;4.75;;;;;11.98;71.90;102426.69;5030154;28;45507;-55
2021/12/13 08:28:15;;;;;;;;;8.25;3.25;;;;;12.00;71.90;102424.84;5033105;28;45443;-55
2021/12/13 08:30:48;;;;;;;;;7.50;5.00;;;;;11.99;71.67;102417.84;5028006;28;45621;-53
2021/12/13 08:33:22;;;;;;;;;3.50;3.25;;;;;12.01;71.89;102415.19;5026889;28;45417;-59
2021/12/13 08:35:52;;;;;;;;;9.00;6.00;;;;;12.02;71.96;102417.75;5021687;28;45484;-59
2021/12/13 08:38:23;;;;;;;;;7.00;5.00;;;;;12.02;71.80;102417.75;5020154;28;46401;-56
2021/12/13 08:40:50;;;;;;;;;6.25;5.00;;;;;12.00;71.58;102416.06;5019846;28;45310;-54
2021/12/13 08:43:15;;;;;;;;;8.25;6.75;;;;;11.99;71.55;102420.50;5020219;28;45340;-56
2021/12/13 08:45:42;;;;;;;;;15.50;12.50;;;;;11.98;71.93;102426.69;5019800;28;45265;-56
2021/12/13 08:48:15;;;;;;;;;13.00;10.25;;;;;11.97;71.81;102430.25;5018848;28;45666;-55
2021/12/13 08:50:47;;;;;;;;;9.25;8.00;;;;;11.97;72.16;102432.91;5018987;28;45291;-54
2021/12/13 08:53:27;;;;;;;;;6.25;3.75;;;;;11.96;72.25;102428.53;5019026;28;45473;-55
2021/12/13 08:56:00;;;;;;;;;11.00;9.00;;;;;11.96;72.06;102432.97;5019269;28;45554;-52
2021/12/13 08:58:27;;;;;;;;;9.75;8.00;;;;;11.91;72.30;102430.50;5018693;28;45542;-55
2021/12/13 09:00:59;;;;;;;;;10.75;9.50;;;;;11.92;72.53;102434.84;5019078;28;45399;-56
2021/12/13 09:03:36;;;;;;;;;49.50;39.50;;;;;11.89;72.48;102442.03;5019642;28;45510;-56
2021/12/13 09:06:17;;;;;;;;;32.50;29.00;;;;;11.87;72.39;102434.19;5019734;28;45573;-55
2021/12/13 09:08:47;;;;;;;;;4.00;4.00;;;;;11.88;72.36;102435.03;5019707;28;45545;-55
2021/12/13 09:11:19;;;;;;;;;5.00;5.00;;;;;11.88;72.59;102438.53;5019530;28;45202;-54
2021/12/13 09:13:50;;;;;;;;;7.00;4.25;;;;;11.88;72.53;102435.91;5019839;28;45389;-55
2021/12/13 09:16:21;;;;;;;;;8.00;5.00;;;;;11.90;72.40;102446.41;5022304;28;45240;-56
2021/12/13 09:19:05;;;;;;;;;3.75;3.00;;;;;11.89;72.36;102442.91;5022840;28;46146;-54
2021/12/13 09:21:31;;;;;;;;;3.00;3.00;;;;;11.86;72.48;102440.38;5023468;28;45355;-54
2021/12/13 09:23:57;;;;;;;;;4.50;4.00;;;;;11.86;72.33;102450.09;5027799;28;45223;-56
2021/12/13 09:26:25;;;;;;;;;9.00;5.25;;;;;11.87;72.32;102446.53;5004023;28;45231;-56
2021/12/13 09:29:04;;;;;;;;;6.00;6.00;;;;;11.87;72.46;102450.03;5029903;28;45331;-56
2021/12/13 09:31:38;;;;;;;;;5.00;4.25;;;;;11.90;71.97;102454.31;5024542;28;45339;-55
2021/12/13 09:34:15;;;;;;;;;12.50;9.00;;;;;11.92;71.83;102457.75;5022507;28;45495;-56
2021/12/13 09:36:43;;;;;;;;;8.25;5.25;;;;;11.96;71.72;102454.09;5015914;28;45314;-56
2021/12/13 09:39:23;;;;;;;;;2.25;2.25;;;;;11.94;71.23;102453.31;5002858;28;45296;-56
2021/12/13 09:42:07;;;;;;;;;2.25;2.25;;;;;11.92;70.90;102450.69;5002970;28;45339;-57
2021/12/13 09:44:56;;;;;;;;;2.75;2.00;;;;;11.89;70.66;102452.59;5011897;28;45245;-57
2021/12/13 09:47:30;;;;;;;;;2.75;1.25;;;;;11.81;70.63;102444.09;5022499;28;45244;-57
2021/12/13 09:49:56;;;;;;;;;3.00;2.50;;;;;11.81;70.59;102452.88;5022324;28;45373;-53
2021/12/13 09:52:32;;;;;;;;;4.25;3.00;;;;;11.82;70.58;102449.31;5022746;28;45223;-56
2021/12/13 09:55:03;;;;;;;;;4.00;3.00;;;;;11.82;70.28;102454.59;5022661;28;45399;-57
2021/12/13 09:57:36;;;;;;;;;5.00;5.00;;;;;11.86;70.31;102452.72;5022507;28;45404;-56
2021/12/13 10:00:21;;;;;;;;;3.75;3.00;;;;;11.89;70.22;102452.59;5022108;28;45427;-57
2021/12/13 10:02:52;;;;;;;;;7.50;6.00;;;;;11.91;70.20;102448.97;5022473;28;45355;-54
2021/12/13 10:05:24;;;;;;;;;9.75;5.00;;;;;11.95;69.99;102462.94;5022175;28;45150;-55
2021/12/13 10:07:54;;;;;;;;;4.00;4.00;;;;;11.96;70.14;102462.88;5022408;28;45463;-54
2021/12/13 10:10:34;;;;;;;;;5.00;4.50;;;;;11.98;69.97;102462.81;5022400;28;45380;-57
2021/12/13 10:13:05;;;;;;;;;7.75;6.00;;;;;11.99;69.59;102460.09;5022276;28;45498;-55
2021/12/13 10:15:42;;;;;;;;;5.00;3.75;;;;;11.98;69.26;102461.03;5022331;28;45368;-56
2021/12/13 10:18:16;;;;;;;;;5.00;3.75;;;;;11.94;69.25;102454.16;5022328;28;45577;-55
2021/12/13 10:20:51;;;;;;;;;3.50;3.50;;;;;11.94;69.44;102455.94;5021911;28;45748;-56
2021/12/13 10:23:24;;;;;;;;;7.50;5.00;;;;;11.94;69.24;102458.59;5022108;28;45395;-56
2021/12/13 10:25:55;;;;;;;;;4.00;4.00;;;;;11.91;68.83;102453.41;5022094;28;45292;-55
2021/12/13 10:28:26;;;;;;;;;4.00;1.50;;;;;11.87;68.82;102449.16;5021213;28;45279;-55
2021/12/13 10:31:14;;;;;;;;;7.00;7.00;;;;;11.88;68.84;102450.88;5022315;28;45423;-56
2021/12/13 10:33:40;;;;;;;;;4.50;4.50;;;;;11.89;68.44;102440.25;5021495;28;45323;-56
2021/12/13 10:36:08;;;;;;;;;1.00;1.00;;;;;11.91;68.77;102441.06;5020766;28;45313;-56
2021/12/13 10:38:41;;;;;;;;;4.00;1.00;;;;;11.90;68.44;102444.63;5021899;28;45468;-56
2021/12/13 10:41:16;;;;;;;;;2.00;2.00;;;;;11.84;68.23;102446.63;5037257;28;46195;-55
2021/12/13 10:43:46;;;;;;;;;3.25;3.25;;;;;11.75;68.53;102455.72;5022398;28;45455;-57
2021/12/13 10:46:21;;;;;;;;;3.00;3.00;;;;;11.67;68.63;102455.97;5021938;28;45256;-54
2021/12/13 10:48:53;;;;;;;;;4.75;4.00;;;;;11.65;68.59;102454.34;5021450;28;45505;-55
2021/12/13 10:51:37;;;;;;;;;5.00;5.00;;;;;11.62;68.89;102452.69;5021570;28;45514;-57
2021/12/13 10:54:11;;;;;;;;;9.00;6.00;;;;;11.65;69.19;102446.41;5022210;28;45224;-55
2021/12/13 10:56:47;;;;;;;;;8.75;5.50;;;;;11.70;68.88;102452.41;5021911;28;45178;-55
2021/12/13 10:59:18;;;;;;;;;6.25;5.50;;;;;11.72;68.62;102453.19;5021683;28;45193;-57
2021/12/13 11:01:51;;;;;;;;;6.50;4.75;;;;;11.71;68.73;102452.34;5021559;28;46050;-56
2021/12/13 11:04:23;;;;;;;;;6.50;4.00;;;;;11.70;68.69;102437.41;5021460;28;45307;-57
2021/12/13 11:06:49;;;;;;;;;7.00;5.00;;;;;11.69;68.61;102446.25;5021681;28;45271;-57
2021/12/13 11:09:21;;;;;;;;;5.00;5.00;;;;;11.66;68.38;102448.13;5021842;28;45400;-55
2021/12/13 11:11:53;;;;;;;;;5.25;4.00;;;;;11.67;68.59;102447.22;5021579;28;45390;-57
2021/12/13 11:14:22;;;;;;;;;4.00;3.00;;;;;11.67;68.55;102452.50;5021677;28;45281;-57
2021/12/13 11:16:59;;;;;;;;;3.00;3.00;;;;;11.67;68.30;102455.13;5021770;28;45224;-57
2021/12/13 11:19:30;;;;;;;;;4.50;4.00;;;;;11.65;68.74;102447.28;5021778;28;45244;-55
2021/12/13 11:22:01;;;;;;;;;4.50;4.00;;;;;11.63;68.62;102449.13;5021315;28;45502;-55
2021/12/13 11:24:32;;;;;;;;;7.75;6.00;;;;;11.57;68.92;102446.69;5021407;28;45338;-56
2021/12/13 11:27:08;;;;;;;;;7.00;4.50;;;;;11.48;68.90;102446.16;5021320;28;45336;-55
2021/12/13 11:29:36;;;;;;;;;6.00;6.00;;;;;11.46;68.87;102448.88;5021571;28;45375;-55
2021/12/13 11:32:37;;;;;;;;;3.75;3.75;;;;;11.46;68.88;102447.09;5036132;28;46946;-56
2021/12/13 11:35:09;;;;;;;;;7.00;7.00;;;;;11.50;68.73;102447.81;5020804;28;45249;-57
2021/12/13 11:38:05;;;;;;;;;7.75;5.25;;;;;11.51;68.78;102446.03;5021059;28;45342;-56
2021/12/13 11:40:46;;;;;;;;;5.00;5.00;;;;;11.50;68.59;102441.69;5021336;28;45459;-55
2021/12/13 11:43:27;;;;;;;;;3.75;2.25;;;;;11.48;68.71;102440.88;5020910;28;45507;-55
2021/12/13 11:46:11;;;;;;;;;3.00;3.00;;;;;11.43;68.34;102439.25;5020929;28;45230;-56
2021/12/13 11:49:02;;;;;;;;;3.00;3.00;;;;;11.37;68.75;102436.81;5020500;28;45266;-54
2021/12/13 11:52:06;;;;;;;;;3.75;2.75;;;;;11.39;68.74;102435.03;5020689;28;46371;-55